Terminal Aerodrome Forecast
Issued by NWS Albany, NY

Home | Current Version | Previous Version | Text Only | Print | Product List | Glossary On
Versions: 1 2 3 4 5 6 7 8 9 10 11 12 13 14 15 16 17 18 19 20 21 22 23 24
000
FTUS41 KALY 292322
TAFGFL
TAF
KGFL 292322Z 3000/3024 07004KT P6SM FEW150 BKN250
     FM300100 04004KT P6SM SCT100 BKN200
     FM300600 VRB03KT P6SM OVC200
     FM301500 05007KT P6SM BKN100
     FM302100 06005KT P6SM VCSH SCT040 OVC100=

USA.gov is the U.S. government's official web portal to all federal, state and local government web resources and services.